Terminal Aerodrome Forecast
Issued by NWS Boston, MA

Home | Current Version | Previous Version | Text Only | Print | Product List | Glossary On
Versions: 1 2 3 4 5 6 7 8 9 10 11 12 13 14 15 16 17 18 19 20 21
000
FTUS41 KBOX 300910 AAB
TAFBDL
TAF AMD
KBDL 300910Z 3009/0112 22006KT P6SM BKN100
     FM302100 19006KT P6SM BKN040
     FM010800 00000KT P6SM OVC050=

USA.gov is the U.S. government's official web portal to all federal, state and local government web resources and services.